sensor_id;sensor_type;location;lat;lon;timestamp;P1;durP1;ratioP1;P2;durP2;ratioP2
27039;SDS011;14589;51.578;7.306;2024-01-30T00:00:04;7.15;;;3.13;;
27039;SDS011;14589;51.578;7.306;2024-01-30T00:02:35;6.68;;;2.88;;
27039;SDS011;14589;51.578;7.306;2024-01-30T00:05:06;7.03;;;3.40;;
27039;SDS011;14589;51.578;7.306;2024-01-30T00:07:37;5.80;;;2.28;;
27039;SDS011;14589;51.578;7.306;2024-01-30T00:10:07;7.25;;;3.78;;
27039;SDS011;14589;51.578;7.306;2024-01-30T00:12:38;8.32;;;2.88;;
27039;SDS011;14589;51.578;7.306;2024-01-30T00:15:08;5.97;;;2.70;;
27039;SDS011;14589;51.578;7.306;2024-01-30T00:17:39;6.55;;;2.53;;
27039;SDS011;14589;51.578;7.306;2024-01-30T00:20:10;6.88;;;3.45;;
27039;SDS011;14589;51.578;7.306;2024-01-30T00:22:40;6.35;;;3.30;;
27039;SDS011;14589;51.578;7.306;2024-01-30T00:25:11;5.80;;;2.85;;
27039;SDS011;14589;51.578;7.306;2024-01-30T00:27:41;4.97;;;2.47;;
27039;SDS011;14589;51.578;7.306;2024-01-30T00:30:11;6.60;;;2.53;;
27039;SDS011;14589;51.578;7.306;2024-01-30T00:32:42;5.40;;;2.10;;
27039;SDS011;14589;51.578;7.306;2024-01-30T00:35:12;10.30;;;4.00;;
27039;SDS011;14589;51.578;7.306;2024-01-30T00:37:43;9.63;;;3.13;;
27039;SDS011;14589;51.578;7.306;2024-01-30T00:40:13;5.57;;;2.38;;
27039;SDS011;14589;51.578;7.306;2024-01-30T00:42:45;6.65;;;3.17;;
27039;SDS011;14589;51.578;7.306;2024-01-30T00:45:16;6.80;;;2.40;;
27039;SDS011;14589;51.578;7.306;2024-01-30T00:47:46;6.43;;;2.97;;
27039;SDS011;14589;51.578;7.306;2024-01-30T00:50:17;7.90;;;3.42;;
27039;SDS011;14589;51.578;7.306;2024-01-30T00:52:47;8.07;;;2.90;;
27039;SDS011;14589;51.578;7.306;2024-01-30T00:55:17;7.95;;;3.50;;
27039;SDS011;14589;51.578;7.306;2024-01-30T00:57:48;7.47;;;3.30;;
27039;SDS011;14589;51.578;7.306;2024-01-30T01:00:18;6.22;;;3.42;;
27039;SDS011;14589;51.578;7.306;2024-01-30T01:02:50;7.25;;;3.25;;
27039;SDS011;14589;51.578;7.306;2024-01-30T01:05:21;8.60;;;3.80;;
27039;SDS011;14589;51.578;7.306;2024-01-30T01:07:51;10.60;;;3.08;;
27039;SDS011;14589;51.578;7.306;2024-01-30T01:10:22;9.13;;;3.25;;
27039;SDS011;14589;51.578;7.306;2024-01-30T01:12:52;7.40;;;4.10;;
27039;SDS011;14589;51.578;7.306;2024-01-30T01:15:23;7.25;;;3.30;;
27039;SDS011;14589;51.578;7.306;2024-01-30T01:17:53;7.80;;;3.78;;
27039;SDS011;14589;51.578;7.306;2024-01-30T01:20:23;4.80;;;2.70;;
27039;SDS011;14589;51.578;7.306;2024-01-30T01:22:54;6.97;;;2.72;;
27039;SDS011;14589;51.578;7.306;2024-01-30T01:25:24;9.27;;;3.65;;
27039;SDS011;14589;51.578;7.306;2024-01-30T01:27:54;9.32;;;2.72;;
27039;SDS011;14589;51.578;7.306;2024-01-30T01:30:25;7.85;;;2.97;;
27039;SDS011;14589;51.578;7.306;2024-01-30T01:32:56;8.38;;;3.97;;
27039;SDS011;14589;51.578;7.306;2024-01-30T01:35:27;7.85;;;3.97;;
27039;SDS011;14589;51.578;7.306;2024-01-30T01:37:58;7.03;;;3.58;;
27039;SDS011;14589;51.578;7.306;2024-01-30T01:40:30;6.28;;;2.58;;
27039;SDS011;14589;51.578;7.306;2024-01-30T01:43:02;7.70;;;3.38;;
27039;SDS011;14589;51.578;7.306;2024-01-30T01:45:33;5.53;;;2.53;;
27039;SDS011;14589;51.578;7.306;2024-01-30T01:48:04;7.32;;;2.40;;
27039;SDS011;14589;51.578;7.306;2024-01-30T01:50:34;7.22;;;3.88;;
27039;SDS011;14589;51.578;7.306;2024-01-30T01:53:06;9.45;;;3.80;;
27039;SDS011;14589;51.578;7.306;2024-01-30T01:55:38;7.97;;;4.47;;
27039;SDS011;14589;51.578;7.306;2024-01-30T01:58:08;7.95;;;3.92;;
27039;SDS011;14589;51.578;7.306;2024-01-30T02:00:40;8.23;;;3.53;;
27039;SDS011;14589;51.578;7.306;2024-01-30T02:03:11;8.00;;;3.55;;
27039;SDS011;14589;51.578;7.306;2024-01-30T02:05:43;8.20;;;3.78;;
27039;SDS011;14589;51.578;7.306;2024-01-30T02:08:14;7.05;;;3.13;;
27039;SDS011;14589;51.578;7.306;2024-01-30T02:10:44;5.32;;;2.72;;
27039;SDS011;14589;51.578;7.306;2024-01-30T02:13:15;7.65;;;3.00;;
27039;SDS011;14589;51.578;7.306;2024-01-30T02:15:48;8.95;;;3.75;;
27039;SDS011;14589;51.578;7.306;2024-01-30T02:18:20;8.20;;;4.25;;
27039;SDS011;14589;51.578;7.306;2024-01-30T02:20:54;7.18;;;3.10;;
27039;SDS011;14589;51.578;7.306;2024-01-30T02:23:27;7.75;;;4.57;;
27039;SDS011;14589;51.578;7.306;2024-01-30T02:25:57;9.85;;;3.35;;
27039;SDS011;14589;51.578;7.306;2024-01-30T02:28:28;5.95;;;3.28;;
27039;SDS011;14589;51.578;7.306;2024-01-30T02:30:58;6.70;;;3.10;;
27039;SDS011;14589;51.578;7.306;2024-01-30T02:33:28;7.25;;;4.05;;
27039;SDS011;14589;51.578;7.306;2024-01-30T02:35:59;7.88;;;3.65;;
27039;SDS011;14589;51.578;7.306;2024-01-30T02:38:29;6.45;;;2.90;;
27039;SDS011;14589;51.578;7.306;2024-01-30T02:40:59;7.63;;;4.10;;
27039;SDS011;14589;51.578;7.306;2024-01-30T02:43:30;8.45;;;3.50;;
27039;SDS011;14589;51.578;7.306;2024-01-30T02:46:00;7.72;;;2.95;;
27039;SDS011;14589;51.578;7.306;2024-01-30T02:48:30;6.80;;;3.20;;
27039;SDS011;14589;51.578;7.306;2024-01-30T02:51:01;6.88;;;3.80;;
27039;SDS011;14589;51.578;7.306;2024-01-30T02:53:31;7.22;;;3.90;;
27039;SDS011;14589;51.578;7.306;2024-01-30T02:56:02;7.85;;;3.67;;
27039;SDS011;14589;51.578;7.306;2024-01-30T02:58:33;8.80;;;3.33;;
27039;SDS011;14589;51.578;7.306;2024-01-30T03:01:03;8.38;;;4.00;;
27039;SDS011;14589;51.578;7.306;2024-01-30T03:03:34;7.43;;;3.33;;
27039;SDS011;14589;51.578;7.306;2024-01-30T03:06:06;7.78;;;4.00;;
27039;SDS011;14589;51.578;7.306;2024-01-30T03:08:37;11.35;;;4.80;;
27039;SDS011;14589;51.578;7.306;2024-01-30T03:11:07;10.88;;;3.17;;
27039;SDS011;14589;51.578;7.306;2024-01-30T03:13:37;13.27;;;4.28;;
27039;SDS011;14589;51.578;7.306;2024-01-30T03:16:08;7.97;;;3.50;;
27039;SDS011;14589;51.578;7.306;2024-01-30T03:18:38;11.38;;;2.97;;
27039;SDS011;14589;51.578;7.306;2024-01-30T03:21:09;9.35;;;3.45;;
27039;SDS011;14589;51.578;7.306;2024-01-30T03:23:39;9.00;;;4.20;;
27039;SDS011;14589;51.578;7.306;2024-01-30T03:26:10;10.32;;;5.05;;
27039;SDS011;14589;51.578;7.306;2024-01-30T03:28:42;8.30;;;3.90;;
27039;SDS011;14589;51.578;7.306;2024-01-30T03:31:14;11.23;;;4.30;;
27039;SDS011;14589;51.578;7.306;2024-01-30T03:33:45;6.13;;;3.13;;
27039;SDS011;14589;51.578;7.306;2024-01-30T03:36:16;9.65;;;4.20;;
27039;SDS011;14589;51.578;7.306;2024-01-30T03:38:47;9.48;;;3.35;;
27039;SDS011;14589;51.578;7.306;2024-01-30T03:41:17;10.05;;;4.25;;
27039;SDS011;14589;51.578;7.306;2024-01-30T03:43:47;7.55;;;4.55;;
27039;SDS011;14589;51.578;7.306;2024-01-30T03:46:18;8.63;;;3.95;;
27039;SDS011;14589;51.578;7.306;2024-01-30T03:48:48;6.55;;;3.97;;
27039;SDS011;14589;51.578;7.306;2024-01-30T03:51:19;6.95;;;3.35;;
27039;SDS011;14589;51.578;7.306;2024-01-30T03:53:49;8.88;;;3.65;;
27039;SDS011;14589;51.578;7.306;2024-01-30T03:56:20;8.98;;;3.10;;
27039;SDS011;14589;51.578;7.306;2024-01-30T03:58:50;6.07;;;3.30;;
27039;SDS011;14589;51.578;7.306;2024-01-30T04:01:21;7.18;;;3.05;;
27039;SDS011;14589;51.578;7.306;2024-01-30T04:03:51;7.53;;;3.08;;
27039;SDS011;14589;51.578;7.306;2024-01-30T04:06:21;6.82;;;3.25;;
27039;SDS011;14589;51.578;7.306;2024-01-30T04:08:52;7.75;;;2.88;;
27039;SDS011;14589;51.578;7.306;2024-01-30T04:11:22;7.82;;;4.10;;
27039;SDS011;14589;51.578;7.306;2024-01-30T04:13:52;6.32;;;2.75;;
27039;SDS011;14589;51.578;7.306;2024-01-30T04:16:23;8.02;;;3.53;;
27039;SDS011;14589;51.578;7.306;2024-01-30T04:18:53;12.32;;;3.75;;
27039;SDS011;14589;51.578;7.306;2024-01-30T04:21:24;7.85;;;3.60;;
27039;SDS011;14589;51.578;7.306;2024-01-30T04:23:54;7.07;;;2.92;;
27039;SDS011;14589;51.578;7.306;2024-01-30T04:26:24;7.25;;;3.38;;
27039;SDS011;14589;51.578;7.306;2024-01-30T04:28:55;9.60;;;3.55;;
27039;SDS011;14589;51.578;7.306;2024-01-30T04:31:25;7.10;;;2.97;;
27039;SDS011;14589;51.578;7.306;2024-01-30T04:33:56;10.60;;;3.65;;
27039;SDS011;14589;51.578;7.306;2024-01-30T04:36:26;9.30;;;2.42;;
27039;SDS011;14589;51.578;7.306;2024-01-30T04:38:56;6.85;;;2.20;;
27039;SDS011;14589;51.578;7.306;2024-01-30T04:41:27;7.65;;;2.65;;
27039;SDS011;14589;51.578;7.306;2024-01-30T04:44:01;5.72;;;2.65;;
27039;SDS011;14589;51.578;7.306;2024-01-30T04:46:32;5.88;;;2.67;;
27039;SDS011;14589;51.578;7.306;2024-01-30T04:49:04;4.65;;;2.92;;
27039;SDS011;14589;51.578;7.306;2024-01-30T04:51:35;9.48;;;3.38;;
27039;SDS011;14589;51.578;7.306;2024-01-30T04:54:05;10.02;;;2.92;;
27039;SDS011;14589;51.578;7.306;2024-01-30T04:56:35;6.35;;;3.25;;
27039;SDS011;14589;51.578;7.306;2024-01-30T04:59:06;5.97;;;2.65;;
27039;SDS011;14589;51.578;7.306;2024-01-30T05:01:38;7.00;;;3.63;;
27039;SDS011;14589;51.578;7.306;2024-01-30T05:04:09;6.10;;;2.72;;
27039;SDS011;14589;51.578;7.306;2024-01-30T05:06:39;7.85;;;2.95;;
27039;SDS011;14589;51.578;7.306;2024-01-30T05:09:09;6.43;;;2.63;;
27039;SDS011;14589;51.578;7.306;2024-01-30T05:11:40;5.78;;;2.15;;
27039;SDS011;14589;51.578;7.306;2024-01-30T05:14:11;5.55;;;2.47;;
27039;SDS011;14589;51.578;7.306;2024-01-30T05:16:42;7.40;;;2.80;;
27039;SDS011;14589;51.578;7.306;2024-01-30T05:19:16;7.63;;;3.70;;
27039;SDS011;14589;51.578;7.306;2024-01-30T05:21:47;4.68;;;2.60;;
27039;SDS011;14589;51.578;7.306;2024-01-30T05:24:17;7.60;;;2.20;;
27039;SDS011;14589;51.578;7.306;2024-01-30T05:26:48;5.95;;;2.58;;
27039;SDS011;14589;51.578;7.306;2024-01-30T05:29:20;8.65;;;2.45;;
27039;SDS011;14589;51.578;7.306;2024-01-30T05:31:50;6.40;;;3.10;;
27039;SDS011;14589;51.578;7.306;2024-01-30T05:34:20;6.90;;;2.63;;
27039;SDS011;14589;51.578;7.306;2024-01-30T05:36:51;5.47;;;2.33;;
27039;SDS011;14589;51.578;7.306;2024-01-30T05:39:21;5.90;;;2.72;;
27039;SDS011;14589;51.578;7.306;2024-01-30T05:41:51;8.10;;;2.20;;
27039;SDS011;14589;51.578;7.306;2024-01-30T05:44:22;5.90;;;3.85;;
27039;SDS011;14589;51.578;7.306;2024-01-30T05:46:52;6.97;;;2.97;;
27039;SDS011;14589;51.578;7.306;2024-01-30T05:49:23;5.53;;;3.33;;
27039;SDS011;14589;51.578;7.306;2024-01-30T05:51:53;6.88;;;3.72;;
27039;SDS011;14589;51.578;7.306;2024-01-30T05:54:24;6.55;;;2.10;;
27039;SDS011;14589;51.578;7.306;2024-01-30T05:56:54;6.80;;;2.80;;
27039;SDS011;14589;51.578;7.306;2024-01-30T05:59:24;7.20;;;3.35;;
27039;SDS011;14589;51.578;7.306;2024-01-30T06:01:55;7.65;;;3.35;;
27039;SDS011;14589;51.578;7.306;2024-01-30T06:04:25;6.15;;;2.17;;
27039;SDS011;14589;51.578;7.306;2024-01-30T06:06:55;6.90;;;2.72;;
27039;SDS011;14589;51.578;7.306;2024-01-30T06:09:26;6.53;;;2.67;;
27039;SDS011;14589;51.578;7.306;2024-01-30T06:11:56;7.93;;;2.53;;
27039;SDS011;14589;51.578;7.306;2024-01-30T06:14:27;7.00;;;2.83;;
27039;SDS011;14589;51.578;7.306;2024-01-30T06:16:57;3.88;;;2.03;;
27039;SDS011;14589;51.578;7.306;2024-01-30T06:19:27;11.05;;;2.88;;
27039;SDS011;14589;51.578;7.306;2024-01-30T06:21:58;7.30;;;2.22;;
27039;SDS011;14589;51.578;7.306;2024-01-30T06:24:28;6.93;;;3.20;;
27039;SDS011;14589;51.578;7.306;2024-01-30T06:26:58;7.15;;;3.55;;
27039;SDS011;14589;51.578;7.306;2024-01-30T06:29:29;6.57;;;2.95;;
27039;SDS011;14589;51.578;7.306;2024-01-30T06:31:59;7.28;;;2.88;;
27039;SDS011;14589;51.578;7.306;2024-01-30T06:34:29;5.03;;;2.15;;
27039;SDS011;14589;51.578;7.306;2024-01-30T06:37:00;8.13;;;3.40;;
27039;SDS011;14589;51.578;7.306;2024-01-30T06:39:30;6.13;;;3.08;;
27039;SDS011;14589;51.578;7.306;2024-01-30T06:42:01;5.85;;;2.78;;
27039;SDS011;14589;51.578;7.306;2024-01-30T06:44:31;9.02;;;3.13;;
27039;SDS011;14589;51.578;7.306;2024-01-30T06:47:01;8.18;;;2.67;;
27039;SDS011;14589;51.578;7.306;2024-01-30T06:49:32;4.57;;;2.38;;
27039;SDS011;14589;51.578;7.306;2024-01-30T06:52:02;8.40;;;2.15;;
27039;SDS011;14589;51.578;7.306;2024-01-30T06:54:33;5.53;;;2.72;;
27039;SDS011;14589;51.578;7.306;2024-01-30T06:57:03;9.20;;;3.63;;
27039;SDS011;14589;51.578;7.306;2024-01-30T06:59:34;6.90;;;2.63;;
27039;SDS011;14589;51.578;7.306;2024-01-30T07:02:05;8.98;;;3.35;;
27039;SDS011;14589;51.578;7.306;2024-01-30T07:04:35;7.18;;;2.55;;
27039;SDS011;14589;51.578;7.306;2024-01-30T07:07:07;6.15;;;3.22;;
27039;SDS011;14589;51.578;7.306;2024-01-30T07:09:42;8.40;;;2.75;;
27039;SDS011;14589;51.578;7.306;2024-01-30T07:12:12;6.35;;;2.58;;
27039;SDS011;14589;51.578;7.306;2024-01-30T07:14:43;6.82;;;2.60;;
27039;SDS011;14589;51.578;7.306;2024-01-30T07:17:13;6.10;;;2.95;;
27039;SDS011;14589;51.578;7.306;2024-01-30T07:19:44;6.70;;;3.03;;
27039;SDS011;14589;51.578;7.306;2024-01-30T07:26:06;8.45;;;2.78;;
27039;SDS011;14589;51.578;7.306;2024-01-30T07:28:36;7.20;;;3.22;;
27039;SDS011;14589;51.578;7.306;2024-01-30T07:31:07;6.28;;;2.88;;
27039;SDS011;14589;51.578;7.306;2024-01-30T07:33:37;7.35;;;3.13;;
27039;SDS011;14589;51.578;7.306;2024-01-30T07:36:08;7.38;;;2.80;;
27039;SDS011;14589;51.578;7.306;2024-01-30T07:38:38;6.75;;;2.35;;
27039;SDS011;14589;51.578;7.306;2024-01-30T07:41:09;7.75;;;2.58;;
27039;SDS011;14589;51.578;7.306;2024-01-30T07:43:39;6.38;;;2.97;;
27039;SDS011;14589;51.578;7.306;2024-01-30T07:46:09;6.20;;;2.22;;
27039;SDS011;14589;51.578;7.306;2024-01-30T07:48:40;5.78;;;2.00;;
27039;SDS011;14589;51.578;7.306;2024-01-30T07:51:10;4.97;;;2.47;;
27039;SDS011;14589;51.578;7.306;2024-01-30T07:53:40;6.72;;;2.88;;
27039;SDS011;14589;51.578;7.306;2024-01-30T07:56:11;4.93;;;2.63;;
27039;SDS011;14589;51.578;7.306;2024-01-30T07:58:42;4.47;;;1.80;;
27039;SDS011;14589;51.578;7.306;2024-01-30T08:01:14;4.90;;;2.22;;
27039;SDS011;14589;51.578;7.306;2024-01-30T08:03:45;8.65;;;2.70;;
27039;SDS011;14589;51.578;7.306;2024-01-30T08:06:15;11.10;;;3.70;;
27039;SDS011;14589;51.578;7.306;2024-01-30T08:08:46;7.35;;;2.38;;
27039;SDS011;14589;51.578;7.306;2024-01-30T08:11:16;7.50;;;2.35;;
27039;SDS011;14589;51.578;7.306;2024-01-30T08:13:46;9.88;;;3.70;;
27039;SDS011;14589;51.578;7.306;2024-01-30T08:16:17;5.05;;;2.67;;
27039;SDS011;14589;51.578;7.306;2024-01-30T08:18:47;6.82;;;3.33;;
27039;SDS011;14589;51.578;7.306;2024-01-30T08:21:18;6.30;;;2.55;;
27039;SDS011;14589;51.578;7.306;2024-01-30T08:23:48;6.03;;;3.08;;
27039;SDS011;14589;51.578;7.306;2024-01-30T08:26:19;8.38;;;2.53;;
27039;SDS011;14589;51.578;7.306;2024-01-30T08:28:49;5.82;;;2.67;;
27039;SDS011;14589;51.578;7.306;2024-01-30T08:31:20;6.57;;;2.25;;
27039;SDS011;14589;51.578;7.306;2024-01-30T08:33:50;5.90;;;2.03;;
27039;SDS011;14589;51.578;7.306;2024-01-30T08:36:21;6.72;;;2.33;;
27039;SDS011;14589;51.578;7.306;2024-01-30T08:38:51;5.80;;;2.17;;
27039;SDS011;14589;51.578;7.306;2024-01-30T08:41:21;6.68;;;2.75;;
27039;SDS011;14589;51.578;7.306;2024-01-30T08:43:52;7.13;;;3.00;;
27039;SDS011;14589;51.578;7.306;2024-01-30T08:46:22;9.75;;;3.03;;
27039;SDS011;14589;51.578;7.306;2024-01-30T08:48:53;9.48;;;3.10;;
27039;SDS011;14589;51.578;7.306;2024-01-30T08:51:23;5.80;;;1.98;;
27039;SDS011;14589;51.578;7.306;2024-01-30T08:53:53;7.25;;;2.63;;
27039;SDS011;14589;51.578;7.306;2024-01-30T08:56:24;4.57;;;2.45;;
27039;SDS011;14589;51.578;7.306;2024-01-30T08:58:54;7.10;;;2.78;;
27039;SDS011;14589;51.578;7.306;2024-01-30T09:01:25;7.50;;;2.92;;
27039;SDS011;14589;51.578;7.306;2024-01-30T09:03:55;6.18;;;2.15;;
27039;SDS011;14589;51.578;7.306;2024-01-30T09:06:26;6.22;;;2.40;;
27039;SDS011;14589;51.578;7.306;2024-01-30T09:08:58;6.90;;;2.45;;
27039;SDS011;14589;51.578;7.306;2024-01-30T09:11:28;7.13;;;3.10;;
27039;SDS011;14589;51.578;7.306;2024-01-30T09:13:58;8.82;;;2.50;;
27039;SDS011;14589;51.578;7.306;2024-01-30T09:16:29;5.38;;;2.50;;
27039;SDS011;14589;51.578;7.306;2024-01-30T09:18:59;4.78;;;2.08;;
27039;SDS011;14589;51.578;7.306;2024-01-30T09:21:29;8.05;;;3.35;;
27039;SDS011;14589;51.578;7.306;2024-01-30T09:24:03;8.55;;;1.95;;
27039;SDS011;14589;51.578;7.306;2024-01-30T09:26:36;5.63;;;2.58;;
27039;SDS011;14589;51.578;7.306;2024-01-30T09:29:07;4.85;;;2.00;;
27039;SDS011;14589;51.578;7.306;2024-01-30T09:31:37;6.07;;;2.80;;
27039;SDS011;14589;51.578;7.306;2024-01-30T09:34:07;7.00;;;5.30;;
27039;SDS011;14589;51.578;7.306;2024-01-30T09:36:38;7.00;;;2.25;;
27039;SDS011;14589;51.578;7.306;2024-01-30T09:39:08;6.03;;;2.55;;
27039;SDS011;14589;51.578;7.306;2024-01-30T09:41:48;5.53;;;2.13;;
27039;SDS011;14589;51.578;7.306;2024-01-30T09:44:23;6.30;;;3.17;;
27039;SDS011;14589;51.578;7.306;2024-01-30T09:46:58;6.43;;;2.45;;
27039;SDS011;14589;51.578;7.306;2024-01-30T09:49:33;4.95;;;1.50;;
27039;SDS011;14589;51.578;7.306;2024-01-30T09:52:05;5.30;;;2.17;;
27039;SDS011;14589;51.578;7.306;2024-01-30T09:54:37;6.85;;;2.38;;
27039;SDS011;14589;51.578;7.306;2024-01-30T09:57:08;5.63;;;1.75;;
27039;SDS011;14589;51.578;7.306;2024-01-30T09:59:41;4.35;;;1.50;;
27039;SDS011;14589;51.578;7.306;2024-01-30T10:02:13;5.63;;;1.67;;
27039;SDS011;14589;51.578;7.306;2024-01-30T10:04:43;6.95;;;1.70;;
27039;SDS011;14589;51.578;7.306;2024-01-30T10:07:13;5.05;;;2.00;;
27039;SDS011;14589;51.578;7.306;2024-01-30T10:09:45;4.80;;;1.60;;
27039;SDS011;14589;51.578;7.306;2024-01-30T10:12:15;7.25;;;1.98;;
27039;SDS011;14589;51.578;7.306;2024-01-30T10:14:46;3.92;;;1.52;;
27039;SDS011;14589;51.578;7.306;2024-01-30T10:17:17;3.78;;;1.58;;
27039;SDS011;14589;51.578;7.306;2024-01-30T10:19:47;9.60;;;2.03;;
27039;SDS011;14589;51.578;7.306;2024-01-30T10:22:17;7.53;;;1.30;;
27039;SDS011;14589;51.578;7.306;2024-01-30T10:24:48;5.93;;;1.38;;
27039;SDS011;14589;51.578;7.306;2024-01-30T10:27:23;5.28;;;1.60;;
27039;SDS011;14589;51.578;7.306;2024-01-30T10:29:57;4.55;;;1.58;;
27039;SDS011;14589;51.578;7.306;2024-01-30T10:32:28;6.60;;;1.60;;
27039;SDS011;14589;51.578;7.306;2024-01-30T10:34:58;5.78;;;1.45;;
27039;SDS011;14589;51.578;7.306;2024-01-30T10:37:29;4.60;;;1.48;;
27039;SDS011;14589;51.578;7.306;2024-01-30T10:40:02;5.53;;;1.45;;
27039;SDS011;14589;51.578;7.306;2024-01-30T10:42:36;5.95;;;1.23;;
27039;SDS011;14589;51.578;7.306;2024-01-30T10:45:09;6.60;;;1.02;;
27039;SDS011;14589;51.578;7.306;2024-01-30T10:47:49;7.30;;;1.90;;
27039;SDS011;14589;51.578;7.306;2024-01-30T10:50:20;12.20;;;2.13;;
27039;SDS011;14589;51.578;7.306;2024-01-30T10:52:54;4.55;;;1.27;;
27039;SDS011;14589;51.578;7.306;2024-01-30T10:55:25;3.70;;;1.63;;
27039;SDS011;14589;51.578;7.306;2024-01-30T10:57:58;5.80;;;1.63;;
27039;SDS011;14589;51.578;7.306;2024-01-30T11:00:30;5.32;;;2.03;;
27039;SDS011;14589;51.578;7.306;2024-01-30T11:03:03;4.05;;;1.35;;
27039;SDS011;14589;51.578;7.306;2024-01-30T11:05:34;4.28;;;1.77;;
27039;SDS011;14589;51.578;7.306;2024-01-30T11:08:14;5.75;;;1.63;;
27039;SDS011;14589;51.578;7.306;2024-01-30T11:10:47;4.50;;;2.08;;
27039;SDS011;14589;51.578;7.306;2024-01-30T11:13:18;3.80;;;1.30;;
27039;SDS011;14589;51.578;7.306;2024-01-30T11:15:49;6.47;;;2.28;;
27039;SDS011;14589;51.578;7.306;2024-01-30T11:18:23;7.20;;;2.13;;
27039;SDS011;14589;51.578;7.306;2024-01-30T11:21:00;6.10;;;1.45;;
27039;SDS011;14589;51.578;7.306;2024-01-30T11:23:33;3.65;;;2.03;;
27039;SDS011;14589;51.578;7.306;2024-01-30T11:26:04;4.82;;;1.42;;
27039;SDS011;14589;51.578;7.306;2024-01-30T11:28:34;6.18;;;2.05;;
27039;SDS011;14589;51.578;7.306;2024-01-30T11:31:05;3.60;;;1.35;;
27039;SDS011;14589;51.578;7.306;2024-01-30T11:33:41;6.65;;;1.77;;
27039;SDS011;14589;51.578;7.306;2024-01-30T11:36:12;6.18;;;1.27;;
27039;SDS011;14589;51.578;7.306;2024-01-30T11:38:44;4.80;;;2.20;;
27039;SDS011;14589;51.578;7.306;2024-01-30T11:41:17;4.25;;;2.08;;
27039;SDS011;14589;51.578;7.306;2024-01-30T11:43:51;5.22;;;2.17;;
27039;SDS011;14589;51.578;7.306;2024-01-30T11:46:24;5.97;;;3.13;;
27039;SDS011;14589;51.578;7.306;2024-01-30T11:48:55;7.05;;;1.83;;
27039;SDS011;14589;51.578;7.306;2024-01-30T11:51:26;5.50;;;2.15;;
27039;SDS011;14589;51.578;7.306;2024-01-30T11:53:56;10.50;;;2.05;;
27039;SDS011;14589;51.578;7.306;2024-01-30T11:56:27;5.43;;;2.30;;
27039;SDS011;14589;51.578;7.306;2024-01-30T11:58:58;9.93;;;1.80;;
27039;SDS011;14589;51.578;7.306;2024-01-30T12:01:30;4.68;;;1.52;;
27039;SDS011;14589;51.578;7.306;2024-01-30T12:04:01;5.63;;;1.30;;
27039;SDS011;14589;51.578;7.306;2024-01-30T12:06:33;6.60;;;1.52;;
27039;SDS011;14589;51.578;7.306;2024-01-30T12:09:04;5.30;;;2.10;;
27039;SDS011;14589;51.578;7.306;2024-01-30T12:11:44;10.80;;;2.78;;
27039;SDS011;14589;51.578;7.306;2024-01-30T12:14:16;4.70;;;1.70;;
27039;SDS011;14589;51.578;7.306;2024-01-30T12:16:49;5.32;;;1.90;;
27039;SDS011;14589;51.578;7.306;2024-01-30T12:19:21;6.82;;;2.58;;
27039;SDS011;14589;51.578;7.306;2024-01-30T12:21:56;7.15;;;2.35;;
27039;SDS011;14589;51.578;7.306;2024-01-30T12:24:29;7.93;;;2.40;;
27039;SDS011;14589;51.578;7.306;2024-01-30T12:27:02;7.40;;;2.35;;
27039;SDS011;14589;51.578;7.306;2024-01-30T12:29:33;9.45;;;1.88;;
27039;SDS011;14589;51.578;7.306;2024-01-30T12:32:03;9.07;;;3.15;;
27039;SDS011;14589;51.578;7.306;2024-01-30T12:34:39;6.63;;;2.33;;
27039;SDS011;14589;51.578;7.306;2024-01-30T12:37:10;8.48;;;1.90;;
27039;SDS011;14589;51.578;7.306;2024-01-30T12:39:42;8.63;;;2.35;;
27039;SDS011;14589;51.578;7.306;2024-01-30T12:42:13;6.82;;;2.17;;
27039;SDS011;14589;51.578;7.306;2024-01-30T12:44:44;6.32;;;1.50;;
27039;SDS011;14589;51.578;7.306;2024-01-30T12:47:14;6.93;;;2.15;;
27039;SDS011;14589;51.578;7.306;2024-01-30T12:49:46;10.85;;;2.47;;
27039;SDS011;14589;51.578;7.306;2024-01-30T12:52:16;7.60;;;2.28;;
27039;SDS011;14589;51.578;7.306;2024-01-30T12:54:47;8.95;;;1.92;;
27039;SDS011;14589;51.578;7.306;2024-01-30T12:57:18;7.00;;;2.38;;
27039;SDS011;14589;51.578;7.306;2024-01-30T12:59:49;7.65;;;2.65;;
27039;SDS011;14589;51.578;7.306;2024-01-30T13:02:19;6.65;;;2.10;;
27039;SDS011;14589;51.578;7.306;2024-01-30T13:04:50;5.30;;;1.77;;
27039;SDS011;14589;51.578;7.306;2024-01-30T13:07:20;7.40;;;2.33;;
27039;SDS011;14589;51.578;7.306;2024-01-30T13:09:50;8.40;;;2.83;;
27039;SDS011;14589;51.578;7.306;2024-01-30T13:12:21;6.32;;;1.95;;
27039;SDS011;14589;51.578;7.306;2024-01-30T13:14:52;9.18;;;3.05;;
27039;SDS011;14589;51.578;7.306;2024-01-30T13:17:22;6.20;;;3.30;;
27039;SDS011;14589;51.578;7.306;2024-01-30T13:19:53;5.55;;;2.38;;
27039;SDS011;14589;51.578;7.306;2024-01-30T13:22:24;6.25;;;2.00;;
27039;SDS011;14589;51.578;7.306;2024-01-30T13:24:54;7.38;;;2.17;;
27039;SDS011;14589;51.578;7.306;2024-01-30T13:27:25;6.63;;;3.15;;
27039;SDS011;14589;51.578;7.306;2024-01-30T13:29:55;9.18;;;3.22;;
27039;SDS011;14589;51.578;7.306;2024-01-30T13:32:25;6.20;;;2.17;;
27039;SDS011;14589;51.578;7.306;2024-01-30T13:34:56;9.23;;;3.38;;
27039;SDS011;14589;51.578;7.306;2024-01-30T13:37:26;9.73;;;2.92;;
27039;SDS011;14589;51.578;7.306;2024-01-30T13:39:57;6.97;;;3.65;;
27039;SDS011;14589;51.578;7.306;2024-01-30T13:42:27;10.05;;;4.40;;
27039;SDS011;14589;51.578;7.306;2024-01-30T13:44:57;9.73;;;4.07;;
27039;SDS011;14589;51.578;7.306;2024-01-30T13:47:28;8.73;;;3.47;;
27039;SDS011;14589;51.578;7.306;2024-01-30T13:49:58;9.80;;;3.22;;
27039;SDS011;14589;51.578;7.306;2024-01-30T13:52:28;8.63;;;3.10;;
27039;SDS011;14589;51.578;7.306;2024-01-30T13:54:59;8.18;;;2.72;;
27039;SDS011;14589;51.578;7.306;2024-01-30T13:57:29;7.00;;;3.45;;
27039;SDS011;14589;51.578;7.306;2024-01-30T14:00:03;8.02;;;2.88;;
27039;SDS011;14589;51.578;7.306;2024-01-30T14:02:43;6.35;;;2.40;;
27039;SDS011;14589;51.578;7.306;2024-01-30T14:05:13;10.15;;;3.63;;
27039;SDS011;14589;51.578;7.306;2024-01-30T14:07:44;10.10;;;3.05;;
27039;SDS011;14589;51.578;7.306;2024-01-30T14:10:15;9.85;;;3.08;;
27039;SDS011;14589;51.578;7.306;2024-01-30T14:12:46;8.75;;;3.60;;
27039;SDS011;14589;51.578;7.306;2024-01-30T14:15:18;7.97;;;3.35;;
27039;SDS011;14589;51.578;7.306;2024-01-30T14:17:48;9.75;;;4.00;;
27039;SDS011;14589;51.578;7.306;2024-01-30T14:20:19;10.73;;;4.13;;
27039;SDS011;14589;51.578;7.306;2024-01-30T14:22:50;9.77;;;3.80;;
27039;SDS011;14589;51.578;7.306;2024-01-30T14:25:21;8.60;;;3.03;;
27039;SDS011;14589;51.578;7.306;2024-01-30T14:27:52;6.60;;;2.78;;
27039;SDS011;14589;51.578;7.306;2024-01-30T14:30:22;6.80;;;3.35;;
27039;SDS011;14589;51.578;7.306;2024-01-30T14:32:53;10.18;;;4.00;;
27039;SDS011;14589;51.578;7.306;2024-01-30T14:35:23;8.00;;;3.72;;
27039;SDS011;14589;51.578;7.306;2024-01-30T14:37:53;7.13;;;2.72;;
27039;SDS011;14589;51.578;7.306;2024-01-30T14:40:24;7.63;;;3.45;;
27039;SDS011;14589;51.578;7.306;2024-01-30T14:42:54;7.25;;;2.58;;
27039;SDS011;14589;51.578;7.306;2024-01-30T14:45:25;8.68;;;3.25;;
27039;SDS011;14589;51.578;7.306;2024-01-30T14:47:55;7.95;;;3.40;;
27039;SDS011;14589;51.578;7.306;2024-01-30T14:50:26;6.38;;;3.10;;
27039;SDS011;14589;51.578;7.306;2024-01-30T14:52:58;5.88;;;2.50;;
27039;SDS011;14589;51.578;7.306;2024-01-30T14:55:28;6.20;;;2.63;;
27039;SDS011;14589;51.578;7.306;2024-01-30T14:57:59;9.25;;;3.22;;
27039;SDS011;14589;51.578;7.306;2024-01-30T15:00:29;6.85;;;2.97;;
27039;SDS011;14589;51.578;7.306;2024-01-30T15:02:59;8.32;;;3.17;;
27039;SDS011;14589;51.578;7.306;2024-01-30T15:05:30;8.50;;;3.55;;
27039;SDS011;14589;51.578;7.306;2024-01-30T15:08:00;7.90;;;3.47;;
27039;SDS011;14589;51.578;7.306;2024-01-30T15:10:31;5.68;;;2.38;;
27039;SDS011;14589;51.578;7.306;2024-01-30T15:13:02;12.85;;;3.42;;